sensor_id;sensor_type;location;lat;lon;timestamp;temperature;humidity
28725;DHT22;43472;48.980;9.646;2024-01-30T00:00:01;4.10;99.90
28725;DHT22;43472;48.980;9.646;2024-01-30T00:05:03;4.30;99.90
28725;DHT22;43472;48.980;9.646;2024-01-30T00:10:06;4.20;99.90
28725;DHT22;43472;48.980;9.646;2024-01-30T00:15:08;4.20;99.90
28725;DHT22;43472;48.980;9.646;2024-01-30T00:20:11;4.10;99.90
28725;DHT22;43472;48.980;9.646;2024-01-30T00:25:14;4.20;99.90
28725;DHT22;43472;48.980;9.646;2024-01-30T00:30:16;5.60;99.90
28725;DHT22;43472;48.980;9.646;2024-01-30T00:35:18;4.20;99.90
28725;DHT22;43472;48.980;9.646;2024-01-30T00:40:21;4.10;99.90
28725;DHT22;43472;48.980;9.646;2024-01-30T00:45:23;4.10;99.90
28725;DHT22;43472;48.980;9.646;2024-01-30T00:50:25;4.00;99.90
28725;DHT22;43472;48.980;9.646;2024-01-30T00:55:28;4.10;99.90
28725;DHT22;43472;48.980;9.646;2024-01-30T01:00:30;4.10;99.90
28725;DHT22;43472;48.980;9.646;2024-01-30T01:05:33;4.10;99.90
28725;DHT22;43472;48.980;9.646;2024-01-30T01:10:35;4.00;99.90
28725;DHT22;43472;48.980;9.646;2024-01-30T01:15:37;4.00;99.90
28725;DHT22;43472;48.980;9.646;2024-01-30T01:20:40;3.90;99.90
28725;DHT22;43472;48.980;9.646;2024-01-30T01:25:42;3.90;99.90
28725;DHT22;43472;48.980;9.646;2024-01-30T01:30:44;4.00;99.90
28725;DHT22;43472;48.980;9.646;2024-01-30T01:35:46;4.00;99.90
28725;DHT22;43472;48.980;9.646;2024-01-30T01:40:48;4.10;99.90
28725;DHT22;43472;48.980;9.646;2024-01-30T01:45:50;4.10;99.90
28725;DHT22;43472;48.980;9.646;2024-01-30T01:50:52;4.00;99.90
28725;DHT22;43472;48.980;9.646;2024-01-30T01:55:55;3.90;99.90
28725;DHT22;43472;48.980;9.646;2024-01-30T02:00:58;4.00;99.90
28725;DHT22;43472;48.980;9.646;2024-01-30T02:06:04;4.00;99.90
28725;DHT22;43472;48.980;9.646;2024-01-30T02:11:06;4.10;99.90
28725;DHT22;43472;48.980;9.646;2024-01-30T02:16:08;4.10;99.90
28725;DHT22;43472;48.980;9.646;2024-01-30T02:21:11;4.00;99.90
28725;DHT22;43472;48.980;9.646;2024-01-30T02:26:14;3.80;99.90
28725;DHT22;43472;48.980;9.646;2024-01-30T02:31:16;4.00;99.90
28725;DHT22;43472;48.980;9.646;2024-01-30T02:36:18;4.00;99.90
28725;DHT22;43472;48.980;9.646;2024-01-30T02:41:20;4.10;99.90
28725;DHT22;43472;48.980;9.646;2024-01-30T02:46:22;4.00;99.90
28725;DHT22;43472;48.980;9.646;2024-01-30T02:51:25;4.10;99.90
28725;DHT22;43472;48.980;9.646;2024-01-30T02:56:27;4.00;99.90
28725;DHT22;43472;48.980;9.646;2024-01-30T03:01:30;4.00;99.90
28725;DHT22;43472;48.980;9.646;2024-01-30T03:06:33;4.00;99.90
28725;DHT22;43472;48.980;9.646;2024-01-30T03:11:35;4.00;99.90
28725;DHT22;43472;48.980;9.646;2024-01-30T03:16:38;3.90;99.90
28725;DHT22;43472;48.980;9.646;2024-01-30T03:21:40;3.90;99.90
28725;DHT22;43472;48.980;9.646;2024-01-30T03:26:42;3.80;99.90
28725;DHT22;43472;48.980;9.646;2024-01-30T03:31:44;3.90;99.90
28725;DHT22;43472;48.980;9.646;2024-01-30T03:36:46;3.70;99.90
28725;DHT22;43472;48.980;9.646;2024-01-30T03:41:49;3.70;99.90
28725;DHT22;43472;48.980;9.646;2024-01-30T03:46:51;3.80;99.90
28725;DHT22;43472;48.980;9.646;2024-01-30T03:51:53;3.70;99.90
28725;DHT22;43472;48.980;9.646;2024-01-30T03:56:55;3.70;99.90
28725;DHT22;43472;48.980;9.646;2024-01-30T04:01:57;3.50;99.90
28725;DHT22;43472;48.980;9.646;2024-01-30T04:07:00;3.70;99.90
28725;DHT22;43472;48.980;9.646;2024-01-30T04:12:02;3.70;99.90
28725;DHT22;43472;48.980;9.646;2024-01-30T04:17:04;3.80;99.90
28725;DHT22;43472;48.980;9.646;2024-01-30T04:22:06;3.80;99.90
28725;DHT22;43472;48.980;9.646;2024-01-30T04:27:08;3.70;99.90
28725;DHT22;43472;48.980;9.646;2024-01-30T04:32:11;3.60;99.90
28725;DHT22;43472;48.980;9.646;2024-01-30T04:37:13;3.70;99.90
28725;DHT22;43472;48.980;9.646;2024-01-30T04:42:15;3.60;99.90
28725;DHT22;43472;48.980;9.646;2024-01-30T04:47:18;3.30;99.90
28725;DHT22;43472;48.980;9.646;2024-01-30T04:52:20;3.20;99.90
28725;DHT22;43472;48.980;9.646;2024-01-30T04:57:22;3.40;99.90
28725;DHT22;43472;48.980;9.646;2024-01-30T05:02:24;3.40;99.90
28725;DHT22;43472;48.980;9.646;2024-01-30T05:07:26;3.40;99.90
28725;DHT22;43472;48.980;9.646;2024-01-30T05:12:31;3.40;99.90
28725;DHT22;43472;48.980;9.646;2024-01-30T05:17:33;3.50;99.90
28725;DHT22;43472;48.980;9.646;2024-01-30T05:22:36;3.50;99.90
28725;DHT22;43472;48.980;9.646;2024-01-30T05:27:38;3.40;99.90
28725;DHT22;43472;48.980;9.646;2024-01-30T05:32:40;3.50;99.90
28725;DHT22;43472;48.980;9.646;2024-01-30T05:37:44;3.50;99.90
28725;DHT22;43472;48.980;9.646;2024-01-30T05:42:46;3.60;99.90
28725;DHT22;43472;48.980;9.646;2024-01-30T05:47:49;3.50;99.90
28725;DHT22;43472;48.980;9.646;2024-01-30T05:52:52;3.50;99.90
28725;DHT22;43472;48.980;9.646;2024-01-30T05:57:55;3.60;99.90
28725;DHT22;43472;48.980;9.646;2024-01-30T06:02:57;3.60;99.90
28725;DHT22;43472;48.980;9.646;2024-01-30T06:08:02;3.70;99.90
28725;DHT22;43472;48.980;9.646;2024-01-30T06:13:04;3.50;99.90
28725;DHT22;43472;48.980;9.646;2024-01-30T06:18:06;3.40;99.90
28725;DHT22;43472;48.980;9.646;2024-01-30T06:23:08;3.50;99.90
28725;DHT22;43472;48.980;9.646;2024-01-30T06:28:11;3.60;99.90
28725;DHT22;43472;48.980;9.646;2024-01-30T06:33:13;3.60;99.90
28725;DHT22;43472;48.980;9.646;2024-01-30T06:38:16;3.60;99.90
28725;DHT22;43472;48.980;9.646;2024-01-30T06:43:18;3.60;99.90
28725;DHT22;43472;48.980;9.646;2024-01-30T06:48:20;3.50;99.90
28725;DHT22;43472;48.980;9.646;2024-01-30T06:53:22;3.50;99.90
28725;DHT22;43472;48.980;9.646;2024-01-30T07:18:43;3.50;99.90
28725;DHT22;43472;48.980;9.646;2024-01-30T07:23:46;3.80;99.90
28725;DHT22;43472;48.980;9.646;2024-01-30T07:33:53;3.80;99.90
28725;DHT22;43472;48.980;9.646;2024-01-30T07:38:56;3.70;99.90
28725;DHT22;43472;48.980;9.646;2024-01-30T07:43:58;3.70;99.90
28725;DHT22;43472;48.980;9.646;2024-01-30T07:49:01;4.00;99.90
28725;DHT22;43472;48.980;9.646;2024-01-30T07:54:03;3.90;99.90
28725;DHT22;43472;48.980;9.646;2024-01-30T07:59:10;4.20;99.90
28725;DHT22;43472;48.980;9.646;2024-01-30T08:04:13;4.20;99.90
28725;DHT22;43472;48.980;9.646;2024-01-30T08:09:15;4.20;99.90
28725;DHT22;43472;48.980;9.646;2024-01-30T08:14:17;4.50;99.90
28725;DHT22;43472;48.980;9.646;2024-01-30T08:19:19;4.60;99.90
28725;DHT22;43472;48.980;9.646;2024-01-30T08:24:21;4.70;99.90
28725;DHT22;43472;48.980;9.646;2024-01-30T08:29:23;4.80;99.90
28725;DHT22;43472;48.980;9.646;2024-01-30T08:34:25;5.10;99.90
28725;DHT22;43472;48.980;9.646;2024-01-30T08:39:27;5.20;99.90
28725;DHT22;43472;48.980;9.646;2024-01-30T08:44:29;5.40;99.90
28725;DHT22;43472;48.980;9.646;2024-01-30T08:49:31;5.60;99.90
28725;DHT22;43472;48.980;9.646;2024-01-30T08:54:33;5.80;99.90
28725;DHT22;43472;48.980;9.646;2024-01-30T08:59:36;6.10;99.90
28725;DHT22;43472;48.980;9.646;2024-01-30T09:04:39;6.70;99.90
28725;DHT22;43472;48.980;9.646;2024-01-30T09:09:41;7.20;99.90
28725;DHT22;43472;48.980;9.646;2024-01-30T09:14:44;8.00;99.90
28725;DHT22;43472;48.980;9.646;2024-01-30T09:19:46;7.80;99.90
28725;DHT22;43472;48.980;9.646;2024-01-30T09:24:48;8.60;99.90
28725;DHT22;43472;48.980;9.646;2024-01-30T09:29:52;8.80;99.90
28725;DHT22;43472;48.980;9.646;2024-01-30T09:34:54;9.10;99.90
28725;DHT22;43472;48.980;9.646;2024-01-30T09:39:56;9.20;99.90
28725;DHT22;43472;48.980;9.646;2024-01-30T09:44:58;9.10;99.90
28725;DHT22;43472;48.980;9.646;2024-01-30T09:50:01;9.30;99.90
28725;DHT22;43472;48.980;9.646;2024-01-30T09:55:05;9.30;99.90
28725;DHT22;43472;48.980;9.646;2024-01-30T10:00:09;9.20;99.90
28725;DHT22;43472;48.980;9.646;2024-01-30T10:05:15;9.10;99.90
28725;DHT22;43472;48.980;9.646;2024-01-30T10:10:18;9.70;99.90
28725;DHT22;43472;48.980;9.646;2024-01-30T10:20:25;9.90;99.90
28725;DHT22;43472;48.980;9.646;2024-01-30T10:25:27;10.00;99.90
28725;DHT22;43472;48.980;9.646;2024-01-30T10:30:29;9.80;99.90
28725;DHT22;43472;48.980;9.646;2024-01-30T10:35:31;10.00;99.90
28725;DHT22;43472;48.980;9.646;2024-01-30T10:40:36;10.20;99.90
28725;DHT22;43472;48.980;9.646;2024-01-30T10:45:40;10.20;99.90
28725;DHT22;43472;48.980;9.646;2024-01-30T10:50:45;10.70;99.90
28725;DHT22;43472;48.980;9.646;2024-01-30T10:55:58;10.70;99.90
28725;DHT22;43472;48.980;9.646;2024-01-30T11:01:01;10.70;99.90
28725;DHT22;43472;48.980;9.646;2024-01-30T11:06:04;11.70;99.90
28725;DHT22;43472;48.980;9.646;2024-01-30T11:11:09;10.60;99.90
28725;DHT22;43472;48.980;9.646;2024-01-30T11:16:11;11.00;99.90
28725;DHT22;43472;48.980;9.646;2024-01-30T11:21:14;11.20;99.90
28725;DHT22;43472;48.980;9.646;2024-01-30T11:26:15;11.30;99.90
28725;DHT22;43472;48.980;9.646;2024-01-30T11:31:19;11.60;99.90
28725;DHT22;43472;48.980;9.646;2024-01-30T11:36:25;11.90;99.90
28725;DHT22;43472;48.980;9.646;2024-01-30T11:41:29;12.20;99.90
28725;DHT22;43472;48.980;9.646;2024-01-30T11:46:32;12.70;99.90
28725;DHT22;43472;48.980;9.646;2024-01-30T11:51:34;12.50;99.90
28725;DHT22;43472;48.980;9.646;2024-01-30T11:56:38;12.60;99.90
28725;DHT22;43472;48.980;9.646;2024-01-30T12:01:42;12.40;99.90
28725;DHT22;43472;48.980;9.646;2024-01-30T12:06:45;12.00;99.90
28725;DHT22;43472;48.980;9.646;2024-01-30T12:11:48;12.50;99.90
28725;DHT22;43472;48.980;9.646;2024-01-30T12:16:51;13.00;99.90
28725;DHT22;43472;48.980;9.646;2024-01-30T12:21:56;13.50;99.90
28725;DHT22;43472;48.980;9.646;2024-01-30T12:27:00;13.10;99.90
28725;DHT22;43472;48.980;9.646;2024-01-30T12:32:02;13.20;99.90
28725;DHT22;43472;48.980;9.646;2024-01-30T12:37:04;13.00;99.90
28725;DHT22;43472;48.980;9.646;2024-01-30T12:42:08;13.60;99.90
28725;DHT22;43472;48.980;9.646;2024-01-30T12:47:10;14.50;99.90
28725;DHT22;43472;48.980;9.646;2024-01-30T12:52:14;13.70;99.90
28725;DHT22;43472;48.980;9.646;2024-01-30T12:57:17;13.40;99.90
28725;DHT22;43472;48.980;9.646;2024-01-30T13:02:19;13.10;99.90
28725;DHT22;43472;48.980;9.646;2024-01-30T13:07:22;13.10;99.90
28725;DHT22;43472;48.980;9.646;2024-01-30T13:12:24;13.00;99.90
28725;DHT22;43472;48.980;9.646;2024-01-30T13:17:27;13.00;99.90
28725;DHT22;43472;48.980;9.646;2024-01-30T13:22:29;13.00;99.90
28725;DHT22;43472;48.980;9.646;2024-01-30T13:27:32;13.00;99.90
28725;DHT22;43472;48.980;9.646;2024-01-30T13:32:34;13.10;99.90
28725;DHT22;43472;48.980;9.646;2024-01-30T13:37:36;13.50;99.90
28725;DHT22;43472;48.980;9.646;2024-01-30T13:42:38;12.60;99.90
28725;DHT22;43472;48.980;9.646;2024-01-30T13:47:41;12.50;99.90
28725;DHT22;43472;48.980;9.646;2024-01-30T13:52:43;13.00;99.90
28725;DHT22;43472;48.980;9.646;2024-01-30T13:57:48;12.70;99.90
28725;DHT22;43472;48.980;9.646;2024-01-30T14:02:53;12.60;99.90
28725;DHT22;43472;48.980;9.646;2024-01-30T14:07:58;12.90;99.90
28725;DHT22;43472;48.980;9.646;2024-01-30T14:13:01;12.30;99.90
28725;DHT22;43472;48.980;9.646;2024-01-30T14:18:05;12.60;99.90
28725;DHT22;43472;48.980;9.646;2024-01-30T14:23:10;12.20;99.90
28725;DHT22;43472;48.980;9.646;2024-01-30T14:28:12;12.10;99.90
28725;DHT22;43472;48.980;9.646;2024-01-30T14:33:15;12.50;99.90
28725;DHT22;43472;48.980;9.646;2024-01-30T14:38:18;12.90;99.90
28725;DHT22;43472;48.980;9.646;2024-01-30T14:43:20;12.80;99.90
28725;DHT22;43472;48.980;9.646;2024-01-30T14:48:22;12.60;99.90
28725;DHT22;43472;48.980;9.646;2024-01-30T14:53:24;12.10;99.90
28725;DHT22;43472;48.980;9.646;2024-01-30T14:58:27;11.80;99.90
28725;DHT22;43472;48.980;9.646;2024-01-30T15:03:29;11.70;99.90
28725;DHT22;43472;48.980;9.646;2024-01-30T15:08:31;11.50;99.90
28725;DHT22;43472;48.980;9.646;2024-01-30T15:13:34;11.30;99.90
28725;DHT22;43472;48.980;9.646;2024-01-30T15:18:36;12.10;99.90
28725;DHT22;43472;48.980;9.646;2024-01-30T15:23:39;11.10;99.90
28725;DHT22;43472;48.980;9.646;2024-01-30T15:28:42;10.90;99.90
28725;DHT22;43472;48.980;9.646;2024-01-30T15:33:44;10.80;99.90
28725;DHT22;43472;48.980;9.646;2024-01-30T15:38:46;10.50;99.90
28725;DHT22;43472;48.980;9.646;2024-01-30T15:43:48;10.50;99.90
28725;DHT22;43472;48.980;9.646;2024-01-30T15:48:50;10.40;99.90
28725;DHT22;43472;48.980;9.646;2024-01-30T15:53:52;10.20;99.90
28725;DHT22;43472;48.980;9.646;2024-01-30T15:58:54;10.90;99.90
28725;DHT22;43472;48.980;9.646;2024-01-30T16:03:56;10.10;99.90
28725;DHT22;43472;48.980;9.646;2024-01-30T16:08:58;10.00;99.90
28725;DHT22;43472;48.980;9.646;2024-01-30T16:14:00;9.80;99.90
28725;DHT22;43472;48.980;9.646;2024-01-30T16:19:02;9.70;99.90
28725;DHT22;43472;48.980;9.646;2024-01-30T16:24:05;9.60;99.90
28725;DHT22;43472;48.980;9.646;2024-01-30T16:29:07;9.50;99.90
28725;DHT22;43472;48.980;9.646;2024-01-30T16:34:10;9.40;99.90
28725;DHT22;43472;48.980;9.646;2024-01-30T16:39:12;9.40;99.90
28725;DHT22;43472;48.980;9.646;2024-01-30T16:44:15;9.20;99.90
28725;DHT22;43472;48.980;9.646;2024-01-30T16:49:17;9.20;99.90
28725;DHT22;43472;48.980;9.646;2024-01-30T16:54:19;9.20;99.90
28725;DHT22;43472;48.980;9.646;2024-01-30T16:59:21;9.10;99.90
28725;DHT22;43472;48.980;9.646;2024-01-30T17:04:23;9.00;99.90
28725;DHT22;43472;48.980;9.646;2024-01-30T17:09:25;9.00;99.90
28725;DHT22;43472;48.980;9.646;2024-01-30T17:14:27;9.10;99.90
28725;DHT22;43472;48.980;9.646;2024-01-30T17:19:30;8.90;99.90
28725;DHT22;43472;48.980;9.646;2024-01-30T17:24:33;8.70;99.90
28725;DHT22;43472;48.980;9.646;2024-01-30T17:29:50;8.70;99.90
28725;DHT22;43472;48.980;9.646;2024-01-30T17:34:52;8.80;99.90
28725;DHT22;43472;48.980;9.646;2024-01-30T17:39:55;8.80;99.90
28725;DHT22;43472;48.980;9.646;2024-01-30T17:44:58;8.60;99.90
28725;DHT22;43472;48.980;9.646;2024-01-30T17:50:00;8.50;99.90
28725;DHT22;43472;48.980;9.646;2024-01-30T17:55:02;8.50;99.90
28725;DHT22;43472;48.980;9.646;2024-01-30T18:00:05;8.40;99.90
28725;DHT22;43472;48.980;9.646;2024-01-30T18:05:11;8.30;99.90
28725;DHT22;43472;48.980;9.646;2024-01-30T18:10:13;8.50;99.90
28725;DHT22;43472;48.980;9.646;2024-01-30T18:15:21;8.40;99.90
28725;DHT22;43472;48.980;9.646;2024-01-30T18:20:23;8.30;99.90
28725;DHT22;43472;48.980;9.646;2024-01-30T18:25:25;8.30;99.90
28725;DHT22;43472;48.980;9.646;2024-01-30T18:30:28;8.40;99.90
28725;DHT22;43472;48.980;9.646;2024-01-30T18:35:31;8.30;99.90
28725;DHT22;43472;48.980;9.646;2024-01-30T18:40:33;8.30;99.90
28725;DHT22;43472;48.980;9.646;2024-01-30T18:45:37;8.40;99.90
28725;DHT22;43472;48.980;9.646;2024-01-30T18:50:39;8.30;99.90
28725;DHT22;43472;48.980;9.646;2024-01-30T18:55:41;8.30;99.90
28725;DHT22;43472;48.980;9.646;2024-01-30T19:00:43;8.30;99.90
28725;DHT22;43472;48.980;9.646;2024-01-30T19:05:49;8.30;99.90
28725;DHT22;43472;48.980;9.646;2024-01-30T19:10:52;8.40;99.90
28725;DHT22;43472;48.980;9.646;2024-01-30T19:15:55;8.30;99.90
28725;DHT22;43472;48.980;9.646;2024-01-30T19:20:58;8.40;99.90
28725;DHT22;43472;48.980;9.646;2024-01-30T19:26:02;8.40;99.90
28725;DHT22;43472;48.980;9.646;2024-01-30T19:31:05;8.30;99.90
28725;DHT22;43472;48.980;9.646;2024-01-30T19:36:08;8.30;99.90
28725;DHT22;43472;48.980;9.646;2024-01-30T19:41:14;8.30;99.90
28725;DHT22;43472;48.980;9.646;2024-01-30T19:46:16;8.30;99.90
28725;DHT22;43472;48.980;9.646;2024-01-30T19:51:18;8.30;99.90
28725;DHT22;43472;48.980;9.646;2024-01-30T19:56:20;8.30;99.90
28725;DHT22;43472;48.980;9.646;2024-01-30T20:01:23;8.20;99.90
28725;DHT22;43472;48.980;9.646;2024-01-30T20:06:28;8.20;99.90
28725;DHT22;43472;48.980;9.646;2024-01-30T20:11:30;8.40;99.90
28725;DHT22;43472;48.980;9.646;2024-01-30T20:16:39;8.30;99.90
28725;DHT22;43472;48.980;9.646;2024-01-30T20:21:42;8.10;99.90
28725;DHT22;43472;48.980;9.646;2024-01-30T20:26:51;8.10;99.90
28725;DHT22;43472;48.980;9.646;2024-01-30T20:31:53;8.10;99.90
28725;DHT22;43472;48.980;9.646;2024-01-30T20:36:55;8.20;99.90
28725;DHT22;43472;48.980;9.646;2024-01-30T20:46:59;8.30;99.90
28725;DHT22;43472;48.980;9.646;2024-01-30T20:52:02;8.30;99.90
28725;DHT22;43472;48.980;9.646;2024-01-30T20:57:04;7.90;99.90
28725;DHT22;43472;48.980;9.646;2024-01-30T21:02:06;7.90;99.90
28725;DHT22;43472;48.980;9.646;2024-01-30T21:07:08;7.70;99.90
28725;DHT22;43472;48.980;9.646;2024-01-30T21:12:10;7.70;99.90
28725;DHT22;43472;48.980;9.646;2024-01-30T21:17:13;7.60;99.90
28725;DHT22;43472;48.980;9.646;2024-01-30T21:22:14;7.60;99.90
28725;DHT22;43472;48.980;9.646;2024-01-30T21:27:16;7.50;99.90
28725;DHT22;43472;48.980;9.646;2024-01-30T21:32:18;7.60;99.90
28725;DHT22;43472;48.980;9.646;2024-01-30T21:37:20;7.20;99.90
28725;DHT22;43472;48.980;9.646;2024-01-30T21:42:22;7.20;99.90
28725;DHT22;43472;48.980;9.646;2024-01-30T21:47:24;7.30;99.90
28725;DHT22;43472;48.980;9.646;2024-01-30T21:52:26;7.50;99.90
28725;DHT22;43472;48.980;9.646;2024-01-30T21:57:30;7.50;99.90
28725;DHT22;43472;48.980;9.646;2024-01-30T22:02:33;7.60;99.90
28725;DHT22;43472;48.980;9.646;2024-01-30T22:07:35;7.60;99.90
28725;DHT22;43472;48.980;9.646;2024-01-30T22:12:38;7.70;99.90
28725;DHT22;43472;48.980;9.646;2024-01-30T22:17:41;7.50;99.90
28725;DHT22;43472;48.980;9.646;2024-01-30T22:22:43;7.60;99.90
28725;DHT22;43472;48.980;9.646;2024-01-30T22:27:46;7.60;99.90
28725;DHT22;43472;48.980;9.646;2024-01-30T22:32:48;7.60;99.90
28725;DHT22;43472;48.980;9.646;2024-01-30T22:37:51;7.60;99.90
28725;DHT22;43472;48.980;9.646;2024-01-30T22:42:53;7.60;99.90
28725;DHT22;43472;48.980;9.646;2024-01-30T22:47:56;7.70;99.90
28725;DHT22;43472;48.980;9.646;2024-01-30T22:52:58;7.80;99.90
28725;DHT22;43472;48.980;9.646;2024-01-30T22:58:01;7.90;99.90
28725;DHT22;43472;48.980;9.646;2024-01-30T23:03:02;7.90;99.90
28725;DHT22;43472;48.980;9.646;2024-01-30T23:08:05;7.80;99.90
28725;DHT22;43472;48.980;9.646;2024-01-30T23:13:08;7.70;99.90
28725;DHT22;43472;48.980;9.646;2024-01-30T23:18:10;7.80;99.90
28725;DHT22;43472;48.980;9.646;2024-01-30T23:23:12;7.90;99.90
28725;DHT22;43472;48.980;9.646;2024-01-30T23:28:15;8.00;99.90
28725;DHT22;43472;48.980;9.646;2024-01-30T23:33:19;7.90;99.90
28725;DHT22;43472;48.980;9.646;2024-01-30T23:38:21;7.90;99.90
28725;DHT22;43472;48.980;9.646;2024-01-30T23:43:23;8.10;99.90
28725;DHT22;43472;48.980;9.646;2024-01-30T23:48:31;8.60;99.90
28725;DHT22;43472;48.980;9.646;2024-01-30T23:53:34;8.00;99.90
28725;DHT22;43472;48.980;9.646;2024-01-30T23:58:36;8.10;99.90
